sensor_id;sensor_type;location;lat;lon;timestamp;pressure;altitude;pressure_sealevel;temperature;humidity
67377;BME280;54261;46.086;6.588;2023-05-10T00:03:28;92373.25;;;10.51;56.50
67377;BME280;54261;46.086;6.588;2023-05-10T00:08:30;92367.91;;;10.33;54.99
67377;BME280;54261;46.086;6.588;2023-05-10T00:13:32;92373.66;;;12.21;53.54
67377;BME280;54261;46.086;6.588;2023-05-10T00:18:34;92370.69;;;12.81;51.24
67377;BME280;54261;46.086;6.588;2023-05-10T00:23:35;92376.22;;;12.97;49.44
67377;BME280;54261;46.086;6.588;2023-05-10T00:28:37;92386.78;;;13.27;48.30
67377;BME280;54261;46.086;6.588;2023-05-10T00:33:39;92365.69;;;13.29;46.94
67377;BME280;54261;46.086;6.588;2023-05-10T00:38:41;92382.19;;;13.52;45.41
67377;BME280;54261;46.086;6.588;2023-05-10T00:43:43;92386.69;;;13.23;45.35
67377;BME280;54261;46.086;6.588;2023-05-10T00:48:45;92388.25;;;13.49;45.34
67377;BME280;54261;46.086;6.588;2023-05-10T00:53:48;92381.53;;;13.31;45.40
67377;BME280;54261;46.086;6.588;2023-05-10T00:58:50;92392.97;;;13.65;44.77
67377;BME280;54261;46.086;6.588;2023-05-10T01:03:53;92381.50;;;13.80;44.61
67377;BME280;54261;46.086;6.588;2023-05-10T01:08:55;92386.47;;;13.66;43.95
67377;BME280;54261;46.086;6.588;2023-05-10T01:13:58;92389.81;;;13.63;44.51
67377;BME280;54261;46.086;6.588;2023-05-10T01:19:00;92387.00;;;13.84;43.32
67377;BME280;54261;46.086;6.588;2023-05-10T01:34:54;92391.16;;;13.19;44.31
67377;BME280;54261;46.086;6.588;2023-05-10T01:45:30;92379.06;;;13.13;44.84
67377;BME280;54261;46.086;6.588;2023-05-10T01:50:35;92370.03;;;12.84;45.55
67377;BME280;54261;46.086;6.588;2023-05-10T01:55:42;92372.53;;;13.14;45.48
67377;BME280;54261;46.086;6.588;2023-05-10T02:00:47;92373.22;;;13.11;45.11
67377;BME280;54261;46.086;6.588;2023-05-10T02:05:52;92382.66;;;13.42;43.74
67377;BME280;54261;46.086;6.588;2023-05-10T02:10:56;92376.53;;;12.95;44.42
67377;BME280;54261;46.086;6.588;2023-05-10T02:15:59;92399.69;;;12.63;45.19
67377;BME280;54261;46.086;6.588;2023-05-10T02:21:02;92388.69;;;13.02;45.15
67377;BME280;54261;46.086;6.588;2023-05-10T02:26:05;92388.00;;;13.05;45.12
67377;BME280;54261;46.086;6.588;2023-05-10T02:31:08;92375.44;;;13.09;44.88
67377;BME280;54261;46.086;6.588;2023-05-10T02:36:12;92372.91;;;12.79;45.27
67377;BME280;54261;46.086;6.588;2023-05-10T02:41:16;92380.31;;;12.69;45.32
67377;BME280;54261;46.086;6.588;2023-05-10T02:46:17;92375.94;;;12.77;45.59
67377;BME280;54261;46.086;6.588;2023-05-10T02:51:24;92375.22;;;12.22;47.09
67377;BME280;54261;46.086;6.588;2023-05-10T02:56:33;92383.38;;;10.93;49.09
67377;BME280;54261;46.086;6.588;2023-05-10T03:01:35;92372.06;;;12.20;47.15
67377;BME280;54261;46.086;6.588;2023-05-10T03:06:37;92367.84;;;12.31;46.56
67377;BME280;54261;46.086;6.588;2023-05-10T03:22:28;92375.13;;;13.23;45.04
67377;BME280;54261;46.086;6.588;2023-05-10T03:27:32;92361.53;;;13.19;44.32
67377;BME280;54261;46.086;6.588;2023-05-10T03:32:35;92374.75;;;13.49;43.92
67377;BME280;54261;46.086;6.588;2023-05-10T03:37:38;92370.88;;;12.29;45.51
67377;BME280;54261;46.086;6.588;2023-05-10T03:42:40;92375.06;;;10.20;50.06
67377;BME280;54261;46.086;6.588;2023-05-10T03:47:41;92375.31;;;10.36;51.04
67377;BME280;54261;46.086;6.588;2023-05-10T03:52:44;92371.34;;;10.60;51.19
67377;BME280;54261;46.086;6.588;2023-05-10T03:57:46;92372.69;;;10.84;50.63
67377;BME280;54261;46.086;6.588;2023-05-10T04:02:48;92367.50;;;10.70;48.92
67377;BME280;54261;46.086;6.588;2023-05-10T04:07:53;92384.59;;;7.19;57.84
67377;BME280;54261;46.086;6.588;2023-05-10T04:12:55;92379.31;;;8.15;57.73
67377;BME280;54261;46.086;6.588;2023-05-10T04:17:56;92385.41;;;8.07;59.23
67377;BME280;54261;46.086;6.588;2023-05-10T04:22:58;92381.59;;;8.31;56.51
67377;BME280;54261;46.086;6.588;2023-05-10T04:28:00;92372.59;;;6.60;60.10
67377;BME280;54261;46.086;6.588;2023-05-10T04:33:02;92378.28;;;7.65;60.84
67377;BME280;54261;46.086;6.588;2023-05-10T04:38:04;92386.75;;;7.03;65.19
67377;BME280;54261;46.086;6.588;2023-05-10T04:43:06;92390.66;;;8.44;58.96
67377;BME280;54261;46.086;6.588;2023-05-10T04:48:08;92383.88;;;7.41;62.48
67377;BME280;54261;46.086;6.588;2023-05-10T04:53:09;92387.94;;;8.35;60.44
67377;BME280;54261;46.086;6.588;2023-05-10T04:58:11;92390.72;;;9.25;56.83
67377;BME280;54261;46.086;6.588;2023-05-10T05:03:13;92406.28;;;5.71;63.29
67377;BME280;54261;46.086;6.588;2023-05-10T05:08:16;92397.38;;;5.61;65.64
67377;BME280;54261;46.086;6.588;2023-05-10T05:13:18;92406.88;;;6.53;61.52
67377;BME280;54261;46.086;6.588;2023-05-10T05:18:23;92402.56;;;5.28;65.88
67377;BME280;54261;46.086;6.588;2023-05-10T05:23:24;92386.47;;;7.69;60.22
67377;BME280;54261;46.086;6.588;2023-05-10T05:28:27;92410.59;;;8.38;55.67
67377;BME280;54261;46.086;6.588;2023-05-10T05:33:34;92413.75;;;7.15;56.89
67377;BME280;54261;46.086;6.588;2023-05-10T05:38:36;92406.56;;;8.26;56.01
67377;BME280;54261;46.086;6.588;2023-05-10T05:43:37;92404.59;;;8.95;55.10
67377;BME280;54261;46.086;6.588;2023-05-10T05:48:39;92411.13;;;8.48;53.37
67377;BME280;54261;46.086;6.588;2023-05-10T05:53:41;92410.19;;;9.08;53.91
67377;BME280;54261;46.086;6.588;2023-05-10T05:58:43;92410.06;;;10.06;52.21
67377;BME280;54261;46.086;6.588;2023-05-10T06:03:46;92419.47;;;9.59;50.43
67377;BME280;54261;46.086;6.588;2023-05-10T06:08:48;92415.56;;;10.36;50.16
67377;BME280;54261;46.086;6.588;2023-05-10T06:13:50;92413.84;;;10.97;49.46
67377;BME280;54261;46.086;6.588;2023-05-10T06:18:51;92413.63;;;11.20;48.53
67377;BME280;54261;46.086;6.588;2023-05-10T06:23:53;92422.25;;;9.37;52.44
67377;BME280;54261;46.086;6.588;2023-05-10T06:28:55;92415.16;;;6.51;60.39
67377;BME280;54261;46.086;6.588;2023-05-10T06:33:57;92417.59;;;8.25;55.47
67377;BME280;54261;46.086;6.588;2023-05-10T06:38:59;92422.50;;;8.54;57.23
67377;BME280;54261;46.086;6.588;2023-05-10T06:44:01;92426.25;;;8.85;54.21
67377;BME280;54261;46.086;6.588;2023-05-10T06:49:02;92426.91;;;9.22;55.11
67377;BME280;54261;46.086;6.588;2023-05-10T06:54:04;92425.75;;;9.05;54.96
67377;BME280;54261;46.086;6.588;2023-05-10T06:59:06;92418.38;;;9.96;51.96
67377;BME280;54261;46.086;6.588;2023-05-10T07:04:08;92429.94;;;10.97;50.79
67377;BME280;54261;46.086;6.588;2023-05-10T07:09:10;92441.03;;;8.28;54.63
67377;BME280;54261;46.086;6.588;2023-05-10T07:14:12;92430.09;;;6.33;62.23
67377;BME280;54261;46.086;6.588;2023-05-10T07:19:14;92435.94;;;8.95;57.67
67377;BME280;54261;46.086;6.588;2023-05-10T07:24:16;92433.28;;;8.72;56.73
67377;BME280;54261;46.086;6.588;2023-05-10T07:29:18;92433.69;;;9.19;53.95
67377;BME280;54261;46.086;6.588;2023-05-10T07:34:20;92440.63;;;6.91;59.38
67377;BME280;54261;46.086;6.588;2023-05-10T07:39:21;92440.16;;;6.22;61.49
67377;BME280;54261;46.086;6.588;2023-05-10T07:44:28;92453.63;;;7.76;61.90
67377;BME280;54261;46.086;6.588;2023-05-10T07:49:30;92445.97;;;8.34;60.27
67377;BME280;54261;46.086;6.588;2023-05-10T07:54:32;92452.34;;;7.74;59.38
67377;BME280;54261;46.086;6.588;2023-05-10T07:59:35;92447.94;;;8.74;57.55
67377;BME280;54261;46.086;6.588;2023-05-10T08:04:38;92458.50;;;7.74;58.17
67377;BME280;54261;46.086;6.588;2023-05-10T08:09:40;92461.13;;;9.83;54.47
67377;BME280;54261;46.086;6.588;2023-05-10T08:14:42;92452.19;;;7.42;58.24
67377;BME280;54261;46.086;6.588;2023-05-10T08:19:44;92454.72;;;9.03;56.84
67377;BME280;54261;46.086;6.588;2023-05-10T08:24:45;92450.22;;;9.71;53.07
67377;BME280;54261;46.086;6.588;2023-05-10T08:29:48;92457.31;;;9.26;52.15
67377;BME280;54261;46.086;6.588;2023-05-10T08:34:51;92459.44;;;8.06;55.47
67377;BME280;54261;46.086;6.588;2023-05-10T08:39:52;92460.78;;;8.18;57.76
67377;BME280;54261;46.086;6.588;2023-05-10T08:44:55;92459.31;;;9.12;55.14
67377;BME280;54261;46.086;6.588;2023-05-10T08:49:58;92461.09;;;9.25;54.45
67377;BME280;54261;46.086;6.588;2023-05-10T08:55:00;92473.00;;;8.33;55.40
67377;BME280;54261;46.086;6.588;2023-05-10T09:00:03;92481.84;;;9.60;51.09
67377;BME280;54261;46.086;6.588;2023-05-10T09:05:06;92470.75;;;8.26;52.53
67377;BME280;54261;46.086;6.588;2023-05-10T09:10:08;92462.81;;;8.35;54.31
67377;BME280;54261;46.086;6.588;2023-05-10T09:15:12;92456.84;;;8.38;53.47
67377;BME280;54261;46.086;6.588;2023-05-10T09:20:16;92482.63;;;7.83;53.84
67377;BME280;54261;46.086;6.588;2023-05-10T09:25:22;92479.03;;;11.24;48.47
67377;BME280;54261;46.086;6.588;2023-05-10T09:30:26;92479.31;;;9.05;50.43
67377;BME280;54261;46.086;6.588;2023-05-10T09:35:30;92477.06;;;10.85;48.32
67377;BME280;54261;46.086;6.588;2023-05-10T09:40:33;92477.41;;;10.75;47.53
67377;BME280;54261;46.086;6.588;2023-05-10T09:45:35;92476.91;;;7.62;50.88
67377;BME280;54261;46.086;6.588;2023-05-10T09:50:39;92487.47;;;5.24;57.45
67377;BME280;54261;46.086;6.588;2023-05-10T09:55:44;92478.41;;;7.12;57.47
67377;BME280;54261;46.086;6.588;2023-05-10T10:00:47;92459.22;;;7.52;53.70
67377;BME280;54261;46.086;6.588;2023-05-10T10:05:52;92483.03;;;7.06;52.47
67377;BME280;54261;46.086;6.588;2023-05-10T10:10:57;92486.31;;;8.70;49.42
67377;BME280;54261;46.086;6.588;2023-05-10T10:15:59;92487.91;;;8.71;49.48
67377;BME280;54261;46.086;6.588;2023-05-10T10:21:01;92471.50;;;7.25;51.03
67377;BME280;54261;46.086;6.588;2023-05-10T10:26:04;92473.19;;;8.59;47.93
67377;BME280;54261;46.086;6.588;2023-05-10T10:31:24;92469.31;;;9.29;47.43
67377;BME280;54261;46.086;6.588;2023-05-10T10:36:28;92454.16;;;8.61;46.50
67377;BME280;54261;46.086;6.588;2023-05-10T10:41:32;92461.47;;;9.01;46.42
67377;BME280;54261;46.086;6.588;2023-05-10T10:52:28;92463.59;;;11.12;41.37
67377;BME280;54261;46.086;6.588;2023-05-10T11:02:44;92447.41;;;10.64;41.69
67377;BME280;54261;46.086;6.588;2023-05-10T11:07:57;92453.50;;;9.68;42.94
67377;BME280;54261;46.086;6.588;2023-05-10T11:13:04;92438.16;;;7.87;46.40
67377;BME280;54261;46.086;6.588;2023-05-10T11:18:31;92454.31;;;7.82;47.96
67377;BME280;54261;46.086;6.588;2023-05-10T11:23:48;92460.69;;;7.58;50.58
67377;BME280;54261;46.086;6.588;2023-05-10T11:28:52;92450.56;;;8.20;47.58
67377;BME280;54261;46.086;6.588;2023-05-10T11:33:58;92444.25;;;9.83;46.08
67377;BME280;54261;46.086;6.588;2023-05-10T11:39:00;92454.53;;;7.72;48.79
67377;BME280;54261;46.086;6.588;2023-05-10T11:44:02;92447.06;;;10.92;45.35
67377;BME280;54261;46.086;6.588;2023-05-10T11:49:04;92455.47;;;8.04;45.19
67377;BME280;54261;46.086;6.588;2023-05-10T11:54:10;92447.44;;;10.38;44.50
67377;BME280;54261;46.086;6.588;2023-05-10T11:59:14;92450.44;;;8.48;41.21
67377;BME280;54261;46.086;6.588;2023-05-10T12:04:16;92458.47;;;8.25;43.62
67377;BME280;54261;46.086;6.588;2023-05-10T12:09:18;92455.63;;;7.57;45.17
67377;BME280;54261;46.086;6.588;2023-05-10T12:14:40;92450.34;;;8.30;47.61
67377;BME280;54261;46.086;6.588;2023-05-10T12:19:42;92440.16;;;10.56;43.50
67377;BME280;54261;46.086;6.588;2023-05-10T12:24:45;92444.94;;;10.32;43.74
67377;BME280;54261;46.086;6.588;2023-05-10T12:29:47;92453.50;;;9.10;46.60
67377;BME280;54261;46.086;6.588;2023-05-10T12:34:52;92447.41;;;8.95;48.50
67377;BME280;54261;46.086;6.588;2023-05-10T12:39:54;92458.63;;;8.06;47.34
67377;BME280;54261;46.086;6.588;2023-05-10T12:44:56;92455.84;;;7.60;48.32
67377;BME280;54261;46.086;6.588;2023-05-10T12:50:02;92460.72;;;8.77;46.63
67377;BME280;54261;46.086;6.588;2023-05-10T12:55:04;92467.31;;;8.48;46.76
67377;BME280;54261;46.086;6.588;2023-05-10T13:00:07;92461.19;;;7.32;48.72
67377;BME280;54261;46.086;6.588;2023-05-10T13:05:08;92468.66;;;7.86;47.80
67377;BME280;54261;46.086;6.588;2023-05-10T13:10:11;92464.56;;;8.17;45.53
67377;BME280;54261;46.086;6.588;2023-05-10T13:15:12;92458.47;;;9.34;44.63
67377;BME280;54261;46.086;6.588;2023-05-10T13:20:14;92454.78;;;7.98;44.67
67377;BME280;54261;46.086;6.588;2023-05-10T13:25:17;92469.03;;;8.53;44.86
67377;BME280;54261;46.086;6.588;2023-05-10T13:30:19;92434.69;;;9.32;43.57
67377;BME280;54261;46.086;6.588;2023-05-10T13:35:20;92470.75;;;10.02;42.72
67377;BME280;54261;46.086;6.588;2023-05-10T13:40:22;92443.88;;;12.83;39.64
67377;BME280;54261;46.086;6.588;2023-05-10T13:45:24;92469.84;;;10.59;41.02
67377;BME280;54261;46.086;6.588;2023-05-10T13:50:26;92460.84;;;10.38;41.56
67377;BME280;54261;46.086;6.588;2023-05-10T13:55:28;92454.38;;;10.65;41.88
67377;BME280;54261;46.086;6.588;2023-05-10T14:00:30;92444.94;;;10.41;40.15
67377;BME280;54261;46.086;6.588;2023-05-10T14:05:32;92455.22;;;11.13;40.33
67377;BME280;54261;46.086;6.588;2023-05-10T14:10:34;92452.81;;;10.29;42.83
67377;BME280;54261;46.086;6.588;2023-05-10T14:15:35;92455.19;;;11.22;41.17
67377;BME280;54261;46.086;6.588;2023-05-10T14:20:37;92460.22;;;10.23;41.29
67377;BME280;54261;46.086;6.588;2023-05-10T14:25:42;92431.44;;;8.49;43.98
67377;BME280;54261;46.086;6.588;2023-05-10T14:30:44;92426.69;;;10.82;41.07
67377;BME280;54261;46.086;6.588;2023-05-10T14:35:46;92447.50;;;11.42;41.16
67377;BME280;54261;46.086;6.588;2023-05-10T14:40:48;92434.47;;;9.87;44.91
67377;BME280;54261;46.086;6.588;2023-05-10T14:45:50;92425.53;;;7.00;48.95
67377;BME280;54261;46.086;6.588;2023-05-10T14:50:52;92447.34;;;8.55;48.14
67377;BME280;54261;46.086;6.588;2023-05-10T14:55:54;92452.88;;;8.81;46.56
67377;BME280;54261;46.086;6.588;2023-05-10T15:00:56;92444.50;;;8.51;48.38
67377;BME280;54261;46.086;6.588;2023-05-10T15:05:58;92445.97;;;6.77;51.37
67377;BME280;54261;46.086;6.588;2023-05-10T15:11:00;92440.53;;;7.38;48.17
67377;BME280;54261;46.086;6.588;2023-05-10T15:16:03;92441.16;;;7.86;49.51
67377;BME280;54261;46.086;6.588;2023-05-10T15:21:04;92444.97;;;6.87;49.45
67377;BME280;54261;46.086;6.588;2023-05-10T15:26:06;92445.94;;;10.93;43.52
67377;BME280;54261;46.086;6.588;2023-05-10T15:31:08;92455.13;;;9.95;43.49
67377;BME280;54261;46.086;6.588;2023-05-10T15:36:10;92455.56;;;9.21;43.29
67377;BME280;54261;46.086;6.588;2023-05-10T15:41:12;92440.66;;;11.23;41.81
67377;BME280;54261;46.086;6.588;2023-05-10T15:46:13;92446.88;;;11.06;41.28
67377;BME280;54261;46.086;6.588;2023-05-10T15:51:15;92463.69;;;13.37;38.89
67377;BME280;54261;46.086;6.588;2023-05-10T15:56:17;92461.03;;;12.36;38.49
67377;BME280;54261;46.086;6.588;2023-05-10T16:01:19;92461.16;;;11.97;38.24
67377;BME280;54261;46.086;6.588;2023-05-10T16:06:21;92467.38;;;12.73;37.57
67377;BME280;54261;46.086;6.588;2023-05-10T16:11:23;92465.47;;;8.58;44.05
67377;BME280;54261;46.086;6.588;2023-05-10T16:16:25;92466.53;;;8.79;44.46
67377;BME280;54261;46.086;6.588;2023-05-10T16:21:29;92473.75;;;10.00;42.90
67377;BME280;54261;46.086;6.588;2023-05-10T16:26:32;92451.91;;;9.09;44.37
67377;BME280;54261;46.086;6.588;2023-05-10T16:31:41;92481.22;;;11.99;41.26
67377;BME280;54261;46.086;6.588;2023-05-10T16:36:43;92476.09;;;12.70;39.51
67377;BME280;54261;46.086;6.588;2023-05-10T16:41:44;92476.84;;;12.16;39.09
67377;BME280;54261;46.086;6.588;2023-05-10T16:46:46;92485.31;;;12.48;40.17
67377;BME280;54261;46.086;6.588;2023-05-10T16:51:49;92480.78;;;13.28;38.12
67377;BME280;54261;46.086;6.588;2023-05-10T16:56:51;92477.28;;;12.61;38.49
67377;BME280;54261;46.086;6.588;2023-05-10T17:01:53;92470.50;;;9.14;42.50
67377;BME280;54261;46.086;6.588;2023-05-10T17:06:55;92479.88;;;11.15;39.99
67377;BME280;54261;46.086;6.588;2023-05-10T17:11:58;92476.47;;;10.53;41.85
67377;BME280;54261;46.086;6.588;2023-05-10T17:17:00;92483.78;;;11.18;41.44
67377;BME280;54261;46.086;6.588;2023-05-10T17:22:02;92490.03;;;6.88;45.72
67377;BME280;54261;46.086;6.588;2023-05-10T17:27:04;92487.56;;;6.59;48.72
67377;BME280;54261;46.086;6.588;2023-05-10T17:32:06;92489.78;;;7.46;48.25
67377;BME280;54261;46.086;6.588;2023-05-10T17:37:09;92464.81;;;6.80;47.61
67377;BME280;54261;46.086;6.588;2023-05-10T17:42:11;92490.69;;;8.06;47.28
67377;BME280;54261;46.086;6.588;2023-05-10T17:47:14;92483.59;;;7.87;48.46
67377;BME280;54261;46.086;6.588;2023-05-10T17:52:16;92484.94;;;9.35;44.74
67377;BME280;54261;46.086;6.588;2023-05-10T17:57:18;92475.94;;;10.95;42.37
67377;BME280;54261;46.086;6.588;2023-05-10T18:02:21;92480.88;;;10.67;42.48
67377;BME280;54261;46.086;6.588;2023-05-10T18:07:23;92478.84;;;11.98;41.15
67377;BME280;54261;46.086;6.588;2023-05-10T18:12:26;92470.41;;;12.08;40.65
67377;BME280;54261;46.086;6.588;2023-05-10T18:17:28;92470.63;;;12.24;40.93
67377;BME280;54261;46.086;6.588;2023-05-10T18:22:30;92468.09;;;12.83;40.69
67377;BME280;54261;46.086;6.588;2023-05-10T18:27:32;92470.38;;;12.93;40.32
67377;BME280;54261;46.086;6.588;2023-05-10T18:32:33;92482.28;;;13.05;40.61
67377;BME280;54261;46.086;6.588;2023-05-10T18:37:36;92474.88;;;13.02;40.32
67377;BME280;54261;46.086;6.588;2023-05-10T18:42:40;92493.72;;;12.47;40.78
67377;BME280;54261;46.086;6.588;2023-05-10T18:47:47;92485.88;;;12.96;39.71
67377;BME280;54261;46.086;6.588;2023-05-10T18:52:49;92488.13;;;13.07;38.38
67377;BME280;54261;46.086;6.588;2023-05-10T18:57:51;92468.78;;;12.37;39.54
67377;BME280;54261;46.086;6.588;2023-05-10T19:02:53;92482.84;;;11.62;40.22
67377;BME280;54261;46.086;6.588;2023-05-10T19:07:55;92504.63;;;12.29;39.38
67377;BME280;54261;46.086;6.588;2023-05-10T19:12:57;92489.66;;;11.59;40.51
67377;BME280;54261;46.086;6.588;2023-05-10T19:17:59;92505.75;;;11.98;40.73
67377;BME280;54261;46.086;6.588;2023-05-10T19:23:01;92511.41;;;12.05;41.26
67377;BME280;54261;46.086;6.588;2023-05-10T19:28:11;92508.53;;;12.53;40.04
67377;BME280;54261;46.086;6.588;2023-05-10T19:33:13;92504.72;;;12.33;39.70
67377;BME280;54261;46.086;6.588;2023-05-10T19:38:15;92510.00;;;11.99;40.21
67377;BME280;54261;46.086;6.588;2023-05-10T19:43:17;92514.00;;;12.23;39.82
67377;BME280;54261;46.086;6.588;2023-05-10T19:48:19;92492.31;;;12.19;39.64
67377;BME280;54261;46.086;6.588;2023-05-10T19:53:21;92507.78;;;12.31;39.79
67377;BME280;54261;46.086;6.588;2023-05-10T19:58:23;92523.25;;;12.55;40.12
67377;BME280;54261;46.086;6.588;2023-05-10T20:03:25;92517.72;;;12.52;40.23
67377;BME280;54261;46.086;6.588;2023-05-10T20:08:28;92516.38;;;12.24;40.48
67377;BME280;54261;46.086;6.588;2023-05-10T20:13:30;92509.88;;;12.25;40.73
67377;BME280;54261;46.086;6.588;2023-05-10T20:18:32;92509.34;;;12.32;40.94
67377;BME280;54261;46.086;6.588;2023-05-10T20:23:34;92516.81;;;12.26;40.93
67377;BME280;54261;46.086;6.588;2023-05-10T20:28:36;92521.28;;;11.92;41.06
67377;BME280;54261;46.086;6.588;2023-05-10T20:33:38;92512.94;;;12.36;40.79
67377;BME280;54261;46.086;6.588;2023-05-10T20:38:40;92496.06;;;12.06;40.23
67377;BME280;54261;46.086;6.588;2023-05-10T20:43:42;92489.34;;;11.91;40.51
67377;BME280;54261;46.086;6.588;2023-05-10T20:48:43;92504.56;;;11.78;40.86
67377;BME280;54261;46.086;6.588;2023-05-10T20:53:45;92485.13;;;11.81;40.39
67377;BME280;54261;46.086;6.588;2023-05-10T20:58:47;92500.78;;;11.40;41.61
67377;BME280;54261;46.086;6.588;2023-05-10T21:03:49;92496.75;;;11.64;41.48
67377;BME280;54261;46.086;6.588;2023-05-10T21:08:51;92490.91;;;11.53;41.73
67377;BME280;54261;46.086;6.588;2023-05-10T21:13:53;92490.72;;;11.97;41.01
67377;BME280;54261;46.086;6.588;2023-05-10T21:18:55;92488.06;;;12.18;40.63
67377;BME280;54261;46.086;6.588;2023-05-10T21:23:57;92488.41;;;11.09;42.01
67377;BME280;54261;46.086;6.588;2023-05-10T21:28:58;92487.13;;;10.97;42.16
67377;BME280;54261;46.086;6.588;2023-05-10T21:34:00;92496.63;;;11.03;42.18
67377;BME280;54261;46.086;6.588;2023-05-10T21:39:02;92483.06;;;10.82;42.58
67377;BME280;54261;46.086;6.588;2023-05-10T21:44:04;92486.84;;;10.99;42.65
67377;BME280;54261;46.086;6.588;2023-05-10T21:49:06;92483.91;;;11.30;41.87
67377;BME280;54261;46.086;6.588;2023-05-10T21:54:08;92489.78;;;11.63;40.93
67377;BME280;54261;46.086;6.588;2023-05-10T21:59:10;92475.00;;;11.48;40.88
67377;BME280;54261;46.086;6.588;2023-05-10T22:04:12;92486.03;;;11.07;41.50
67377;BME280;54261;46.086;6.588;2023-05-10T22:09:14;92490.59;;;10.98;42.66
67377;BME280;54261;46.086;6.588;2023-05-10T22:14:16;92481.84;;;11.66;42.11
67377;BME280;54261;46.086;6.588;2023-05-10T22:19:18;92471.19;;;11.10;42.46
67377;BME280;54261;46.086;6.588;2023-05-10T22:24:20;92493.44;;;11.58;41.92
67377;BME280;54261;46.086;6.588;2023-05-10T22:29:22;92484.84;;;11.35;41.74
67377;BME280;54261;46.086;6.588;2023-05-10T22:34:24;92481.97;;;11.40;41.78
67377;BME280;54261;46.086;6.588;2023-05-10T22:39:26;92476.47;;;11.36;41.70
67377;BME280;54261;46.086;6.588;2023-05-10T22:44:27;92464.81;;;11.23;41.38
67377;BME280;54261;46.086;6.588;2023-05-10T22:49:29;92468.25;;;10.67;42.16
67377;BME280;54261;46.086;6.588;2023-05-10T22:54:32;92465.75;;;10.27;41.83
67377;BME280;54261;46.086;6.588;2023-05-10T22:59:36;92470.16;;;10.23;41.81
67377;BME280;54261;46.086;6.588;2023-05-10T23:04:38;92463.34;;;9.99;42.22
67377;BME280;54261;46.086;6.588;2023-05-10T23:09:40;92455.31;;;9.99;41.95
67377;BME280;54261;46.086;6.588;2023-05-10T23:14:42;92456.88;;;9.91;41.78
67377;BME280;54261;46.086;6.588;2023-05-10T23:19:46;92453.75;;;10.33;42.23
67377;BME280;54261;46.086;6.588;2023-05-10T23:24:48;92451.09;;;10.07;41.63
67377;BME280;54261;46.086;6.588;2023-05-10T23:29:50;92465.25;;;10.51;41.08
67377;BME280;54261;46.086;6.588;2023-05-10T23:34:56;92456.44;;;10.42;40.19
67377;BME280;54261;46.086;6.588;2023-05-10T23:39:57;92456.13;;;10.35;41.09
67377;BME280;54261;46.086;6.588;2023-05-10T23:44:59;92453.41;;;10.61;40.41
67377;BME280;54261;46.086;6.588;2023-05-10T23:50:01;92457.34;;;9.84;41.71
67377;BME280;54261;46.086;6.588;2023-05-10T23:55:03;92437.47;;;9.27;43.48
